Time;durP1;ratioP1;P1;durP2;ratioP2;P2;SDS_P1;SDS_P2;PMS_P1;PMS_P2;Temp;Humidity;BMP_temperature;BMP_pressure;BME280_temperature;BME280_humidity;BME280_pressure;Samples;Min_cycle;Max_cycle;Signal;HPM_P1;HPM_P2
2022/05/02 00:01:36;;;;;;;4.07;3.78;;;;;;;14.85;87.62;99609.22;5058404;28;20356;-79
2022/05/02 00:04:02;;;;;;;5.95;4.10;;;;;;;14.84;88.33;99612.06;5075675;28;20113;-78
2022/05/02 00:06:27;;;;;;;4.47;4.15;;;;;;;14.81;88.04;99612.38;5075569;28;20031;-79
2022/05/02 00:08:53;;;;;;;4.68;3.92;;;;;;;14.79;88.37;99615.19;5075613;28;20057;-79
2022/05/02 00:11:18;;;;;;;5.10;4.70;;;;;;;14.77;88.96;99609.25;5075597;28;20032;-79
2022/05/02 00:13:44;;;;;;;4.55;3.85;;;;;;;14.78;88.35;99608.25;5075618;28;20048;-77
2022/05/02 00:16:09;;;;;;;4.78;4.38;;;;;;;14.80;87.61;99600.09;5075883;28;20041;-78
2022/05/02 00:18:35;;;;;;;4.07;3.78;;;;;;;14.80;87.43;99595.59;5058259;28;20040;-78
2022/05/02 00:21:00;;;;;;;4.60;4.28;;;;;;;14.81;86.84;99589.31;5074588;28;20107;-78
2022/05/02 00:23:26;;;;;;;4.63;4.20;;;;;;;14.83;86.52;99595.28;5057508;28;20131;-78
2022/05/02 00:25:51;;;;;;;5.43;4.80;;;;;;;14.86;87.10;99596.75;5075410;28;20035;-78
2022/05/02 00:28:17;;;;;;;4.75;4.35;;;;;;;14.86;86.33;99588.78;5075668;28;20032;-79
2022/05/02 00:30:42;;;;;;;4.80;4.40;;;;;;;14.86;85.24;99592.28;5075550;28;20045;-78
2022/05/02 00:33:09;;;;;;;7.63;4.50;;;;;;;14.85;84.79;99587.97;5075542;28;20031;-78
2022/05/02 00:35:35;;;;;;;5.38;4.20;;;;;;;14.85;85.97;99585.31;5075343;28;20514;-78
2022/05/02 00:38:00;;;;;;;5.70;4.30;;;;;;;14.87;86.33;99575.34;5054753;28;20084;-78
2022/05/02 00:40:26;;;;;;;4.78;4.38;;;;;;;14.87;86.33;99579.81;5072616;28;20052;-78
2022/05/02 00:42:51;;;;;;;5.18;4.68;;;;;;;14.87;86.40;99575.34;5072028;28;20074;-78
2022/05/02 00:45:19;;;;;;;5.57;5.00;;;;;;;14.88;86.48;99573.53;5072249;28;20040;-78
2022/05/02 00:48:00;;;;;;;5.53;5.07;;;;;;;14.88;86.98;99571.69;5072247;28;20056;-77
2022/05/02 00:50:36;;;;;;;;;;;;;;;14.84;87.19;99565.06;5071981;28;20040;-78
2022/05/02 00:53:08;;;;;;;5.40;4.95;;;;;;;14.82;87.69;99561.75;5067818;28;19920;-76
2022/05/02 00:55:34;;;;;;;7.05;4.53;;;;;;;14.83;87.89;99567.88;5069396;28;20050;-78
2022/05/02 00:58:01;;;;;;;5.32;4.82;;;;;;;14.81;88.25;99570.72;5070076;28;20044;-77
2022/05/02 01:00:31;;;;;;;5.35;4.85;;;;;;;14.80;88.86;99571.69;5070158;28;20392;-78
2022/05/02 01:02:57;;;;;;;5.03;4.63;;;;;;;14.75;89.00;99566.91;5069733;28;20075;-78
2022/05/02 01:05:23;;;;;;;7.55;5.57;;;;;;;14.74;88.27;99557.28;5071364;28;20028;-78
2022/05/02 01:07:49;;;;;;;5.32;4.85;;;;;;;14.74;88.78;99564.41;5054250;28;20397;-79
2022/05/02 01:10:17;;;;;;;5.43;5.03;;;;;;;14.73;89.08;99568.06;5071887;28;20082;-78
2022/05/02 01:12:46;;;;;;;7.78;5.97;;;;;;;14.72;88.68;99555.78;5072228;28;20366;-79
2022/05/02 01:15:13;;;;;;;5.55;5.13;;;;;;;14.72;88.87;99555.78;5072227;28;20385;-78
2022/05/02 01:17:38;;;;;;;5.65;4.93;;;;;;;14.72;88.78;99555.78;5072401;28;20021;-79
2022/05/02 01:20:09;;;;;;;5.32;4.90;;;;;;;14.70;88.50;99557.78;5071718;28;20043;-78
2022/05/02 01:22:34;;;;;;;6.82;4.82;;;;;;;14.70;87.85;99555.97;5071648;28;20036;-78
2022/05/02 01:25:00;;;;;;;5.20;4.57;;;;;;;14.70;86.96;99557.78;5071490;28;20035;-78
2022/05/02 01:27:25;;;;;;;5.63;4.75;;;;;;;14.68;86.68;99565.09;5071837;28;20048;-77
2022/05/02 01:29:51;;;;;;;5.10;4.63;;;;;;;14.69;89.45;99561.44;5071928;28;20503;-78
2022/05/02 01:32:17;;;;;;;4.53;4.18;;;;;;;14.71;89.87;99559.44;5053823;28;20024;-78
2022/05/02 01:34:43;;;;;;;4.95;4.53;;;;;;;14.70;90.69;99563.94;5072171;28;20039;-78
2022/05/02 01:37:11;;;;;;;5.93;4.60;;;;;;;14.68;89.52;99565.09;5053156;28;20032;-78
2022/05/02 01:39:36;;;;;;;5.18;4.68;;;;;;;14.62;88.81;99592.31;5071078;28;20033;-78
2022/05/02 01:42:04;;;;;;;6.35;5.65;;;;;;;14.56;90.25;99592.97;5071243;28;20523;-78
2022/05/02 01:44:30;;;;;;;7.72;5.95;;;;;;;14.50;90.64;99588.34;5066364;28;20036;-78
2022/05/02 01:46:55;;;;;;;6.15;5.65;;;;;;;14.50;90.44;99583.03;5053292;28;20116;-78
2022/05/02 01:49:21;;;;;;;5.95;5.35;;;;;;;14.51;90.71;99579.38;5070520;28;20017;-78
2022/05/02 01:51:47;;;;;;;5.95;5.40;;;;;;;14.52;91.60;99581.88;5072221;28;20488;-79
2022/05/02 01:54:12;;;;;;;5.75;4.97;;;;;;;14.53;91.53;99582.72;5071102;28;20099;-78
2022/05/02 01:56:38;;;;;;;5.22;4.82;;;;;;;14.53;91.10;99585.38;5053084;28;20495;-79
2022/05/02 01:59:04;;;;;;;6.35;5.18;;;;;;;14.52;89.58;99591.66;5070390;28;20089;-78
2022/05/02 02:01:31;;;;;;;5.53;5.03;;;;;;;14.52;89.99;99587.19;5071270;28;20078;-79
2022/05/02 02:03:59;;;;;;;6.85;5.22;;;;;;;14.54;88.53;99595.81;5070728;28;20032;-79
2022/05/02 02:06:24;;;;;;;7.85;5.18;;;;;;;14.56;90.10;99582.34;5071023;28;20036;-78
2022/05/02 02:08:50;;;;;;;5.72;5.20;;;;;;;14.58;91.13;99591.00;5070664;28;20119;-78
2022/05/02 02:11:15;;;;;;;6.03;5.50;;;;;;;14.56;91.62;99587.66;5070598;28;20140;-78
2022/05/02 02:13:41;;;;;;;5.82;5.15;;;;;;;14.47;89.66;99597.47;5070897;28;20312;-78
2022/05/02 02:16:09;;;;;;;7.18;4.97;;;;;;;14.35;89.38;99591.66;5070371;28;20075;-78
2022/05/02 02:18:37;;;;;;;5.60;5.10;;;;;;;14.26;90.71;99589.97;5070798;28;20489;-78
2022/05/02 02:21:03;;;;;;;6.65;5.07;;;;;;;14.25;93.07;99590.16;5070613;28;20381;-79
2022/05/02 02:23:29;;;;;;;6.18;5.57;;;;;;;14.27;93.99;99582.84;5052959;28;20036;-78
2022/05/02 02:25:54;;;;;;;5.95;5.45;;;;;;;14.28;92.88;99585.34;5070038;28;20036;-79
2022/05/02 02:28:20;;;;;;;5.70;5.20;;;;;;;14.28;93.73;99582.69;5070478;28;20033;-78
2022/05/02 02:30:46;;;;;;;6.18;5.60;;;;;;;14.27;94.57;99578.34;5052528;28;20035;-78
2022/05/02 02:33:12;;;;;;;6.15;5.65;;;;;;;14.27;94.95;99573.06;5070017;28;20365;-78
2022/05/02 02:35:38;;;;;;;6.40;5.90;;;;;;;14.28;95.44;99579.19;5070478;28;20033;-78
2022/05/02 02:38:03;;;;;;;6.22;5.72;;;;;;;14.25;96.46;99569.75;5052415;28;20131;-78
2022/05/02 02:40:32;;;;;;;5.82;5.28;;;;;;;14.23;95.25;99569.06;5066427;28;20024;-78
2022/05/02 02:42:57;;;;;;;5.53;5.03;;;;;;;14.21;94.68;99579.03;5069507;28;20111;-77
2022/05/02 02:45:23;;;;;;;6.18;5.68;;;;;;;14.20;95.76;99572.03;5069759;28;20528;-78
2022/05/02 02:47:48;;;;;;;5.80;5.22;;;;;;;14.16;96.18;99573.38;5070122;28;20047;-78
2022/05/02 02:50:14;;;;;;;6.45;5.80;;;;;;;14.09;98.08;99572.38;5070213;28;20046;-77
2022/05/02 02:52:40;;;;;;;8.25;5.75;;;;;;;14.04;98.02;99566.72;5052365;28;20126;-78
2022/05/02 02:55:06;;;;;;;6.15;5.07;;;;;;;13.99;99.24;99563.75;5070253;28;20039;-79
2022/05/02 02:57:33;;;;;;;6.30;5.80;;;;;;;13.94;99.34;99563.41;5069881;28;20032;-78
2022/05/02 03:00:00;;;;;;;6.35;5.80;;;;;;;13.91;99.75;99572.53;5047267;28;20028;-78
2022/05/02 03:02:25;;;;;;;6.88;6.00;;;;;;;13.88;100.00;99574.69;5070335;28;20453;-78
2022/05/02 03:07:36;;;;;;;6.38;5.85;;;;;;;13.80;98.81;99566.69;5066867;28;20033;-78
2022/05/02 03:10:02;;;;;;;8.70;5.95;;;;;;;13.78;99.30;99560.75;5069636;28;20029;-78
2022/05/02 03:12:27;;;;;;;5.88;5.30;;;;;;;13.73;100.00;99557.72;5069787;28;20024;-78
2022/05/02 03:14:53;;;;;;;6.05;5.47;;;;;;;13.69;100.00;99553.75;5069266;28;20114;-79
2022/05/02 03:17:18;;;;;;;7.28;6.55;;;;;;;13.65;100.00;99561.22;5070071;28;20024;-78
2022/05/02 03:19:44;;;;;;;6.75;6.25;;;;;;;13.62;100.00;99556.22;5069884;28;20522;-78
2022/05/02 03:22:09;;;;;;;6.32;5.80;;;;;;;13.61;100.00;99556.41;5069475;28;20111;-78
2022/05/02 03:24:35;;;;;;;6.35;5.80;;;;;;;13.58;100.00;99556.72;5069742;28;20131;-78
2022/05/02 03:27:00;;;;;;;9.05;6.25;;;;;;;13.52;100.00;99556.38;5051493;28;20060;-78
2022/05/02 03:29:26;;;;;;;6.45;5.95;;;;;;;13.46;100.00;99554.38;5068984;28;20374;-78
2022/05/02 03:31:51;;;;;;;6.68;6.07;;;;;;;13.37;100.00;99555.31;5069349;28;20067;-78
2022/05/02 03:34:17;;;;;;;9.88;5.65;;;;;;;13.30;100.00;99553.47;5069628;28;20035;-78
2022/05/02 03:36:42;;;;;;;8.40;6.32;;;;;;;13.23;100.00;99555.94;5069824;28;20707;-78
2022/05/02 03:39:08;;;;;;;7.53;6.60;;;;;;;13.16;100.00;99544.31;5069707;28;20060;-77
2022/05/02 03:41:33;;;;;;;7.32;6.63;;;;;;;13.09;100.00;99548.53;5070233;28;20028;-78
2022/05/02 03:43:59;;;;;;;9.02;6.78;;;;;;;13.05;100.00;99549.88;5065525;28;20058;-78
2022/05/02 03:46:25;;;;;;;7.15;6.43;;;;;;;12.99;100.00;99548.69;5069348;28;20040;-78
2022/05/02 03:48:51;;;;;;;7.43;6.80;;;;;;;12.95;100.00;99551.81;5069822;28;20048;-78
2022/05/02 03:51:17;;;;;;;7.03;6.32;;;;;;;12.90;100.00;99548.81;5069430;28;20032;-77
2022/05/02 03:53:43;;;;;;;7.25;6.65;;;;;;;12.86;100.00;99537.69;5069391;28;20036;-78
2022/05/02 03:56:08;;;;;;;7.75;6.97;;;;;;;12.84;100.00;99533.53;5069108;28;20530;-78
2022/05/02 03:58:34;;;;;;;7.80;7.10;;;;;;;12.84;100.00;99544.13;5069498;28;20047;-78
2022/05/02 04:01:00;;;;;;;8.75;6.72;;;;;;;12.81;100.00;99544.44;5046823;28;20104;-78
2022/05/02 04:03:26;;;;;;;9.10;7.00;;;;;;;12.82;100.00;99546.09;5069157;28;20044;-78
2022/05/02 04:05:51;;;;;;;7.97;7.15;;;;;;;12.81;100.00;99545.28;5069101;28;20041;-78
2022/05/02 04:08:16;;;;;;;7.82;7.03;;;;;;;12.80;100.00;99548.06;5051424;28;20044;-76
2022/05/02 04:10:42;;;;;;;7.15;6.55;;;;;;;12.74;100.00;99541.59;5069399;28;20552;-77
2022/05/02 04:13:08;;;;;;;10.43;6.82;;;;;;;12.70;100.00;99550.84;5070749;28;20059;-78
2022/05/02 04:15:34;;;;;;;9.85;7.10;;;;;;;12.67;100.00;99549.31;5072602;28;20028;-78
2022/05/02 04:17:59;;;;;;;10.13;7.22;;;;;;;12.64;100.00;99544.34;5068604;28;20032;-78
2022/05/02 04:20:25;;;;;;;10.85;7.00;;;;;;;12.57;100.00;99542.47;5073124;28;20041;-77
2022/05/02 04:22:51;;;;;;;7.70;6.68;;;;;;;12.49;100.00;99556.47;5055449;28;20140;-78
2022/05/02 04:25:16;;;;;;;7.40;6.70;;;;;;;12.49;100.00;99553.81;5072982;28;20028;-76
2022/05/02 04:27:43;;;;;;;7.53;6.75;;;;;;;12.54;100.00;99554.22;5073074;28;20422;-78
2022/05/02 04:30:10;;;;;;;7.85;7.15;;;;;;;12.58;100.00;99555.56;5071848;28;20047;-78
2022/05/02 04:32:36;;;;;;;10.52;7.13;;;;;;;12.62;100.00;99558.72;5072454;28;20077;-76
2022/05/02 04:35:03;;;;;;;7.90;7.13;;;;;;;12.68;100.00;99556.28;5054555;28;20103;-78
2022/05/02 04:37:28;;;;;;;8.02;7.32;;;;;;;12.71;100.00;99561.28;5072803;28;20074;-77
2022/05/02 04:39:54;;;;;;;8.20;7.25;;;;;;;12.68;100.00;99558.94;5072220;28;20044;-78
2022/05/02 04:42:20;;;;;;;9.02;7.50;;;;;;;12.75;100.00;99555.66;5072558;28;20063;-77
2022/05/02 04:44:45;;;;;;;8.05;6.75;;;;;;;12.80;100.00;99558.66;5072041;28;20040;-77
2022/05/02 04:47:11;;;;;;;9.00;7.18;;;;;;;12.78;100.00;99560.66;5071848;28;20028;-77
2022/05/02 04:49:37;;;;;;;8.25;6.93;;;;;;;12.68;100.00;99556.28;5072352;28;20480;-78
2022/05/02 04:52:02;;;;;;;7.72;7.03;;;;;;;12.59;100.00;99566.97;5071717;28;20028;-78
2022/05/02 04:54:28;;;;;;;8.48;7.40;;;;;;;12.47;100.00;99558.47;5072693;28;20033;-79
2022/05/02 04:56:53;;;;;;;9.85;7.57;;;;;;;12.42;100.00;99555.47;5071920;28;20047;-78
2022/05/02 04:59:19;;;;;;;9.50;7.28;;;;;;;12.50;100.00;99558.13;5072052;28;20365;-77
2022/05/02 05:01:44;;;;;;;8.20;7.47;;;;;;;12.59;100.00;99551.94;5071594;28;20258;-78
2022/05/02 05:04:10;;;;;;;7.43;6.82;;;;;;;12.67;100.00;99554.63;5071599;28;20113;-78
2022/05/02 05:06:36;;;;;;;8.70;7.80;;;;;;;12.69;100.00;99552.66;5071946;28;20071;-78
2022/05/02 05:09:02;;;;;;;8.90;7.45;;;;;;;12.70;100.00;99549.03;5071417;28;20040;-78
2022/05/02 05:11:41;;;;;;;9.02;7.65;;;;;;;12.77;100.00;99553.69;5071800;28;20052;-77
2022/05/02 05:17:24;;;;;;;7.63;7.03;;;;;;;13.00;100.00;99554.81;5067696;28;20043;-78
2022/05/02 05:20:12;;;;;;;8.43;7.60;;;;;;;13.11;100.00;99555.34;5069977;28;20052;-77
2022/05/02 05:22:38;;;;;;;8.65;7.80;;;;;;;13.18;100.00;99552.94;5050337;28;20028;-72
2022/05/02 05:25:20;;;;;;;9.73;7.32;;;;;;;13.21;100.00;99557.91;5070528;28;20477;-72
2022/05/02 05:28:23;;;;;;;7.97;7.18;;;;;;;13.27;100.00;99551.97;5069787;28;20036;-72
2022/05/02 05:31:01;;;;;;;8.02;7.28;;;;;;;13.35;100.00;99553.81;5067211;28;20157;-74
2022/05/02 05:33:51;;;;;;;8.73;7.88;;;;;;;13.42;100.00;99550.38;5071364;28;20332;-73
2022/05/02 05:36:35;;;;;;;8.82;8.10;;;;;;;13.51;100.00;99551.22;5069211;28;20113;-72
2022/05/02 05:39:04;;;;;;;9.57;8.68;;;;;;;13.63;100.00;99557.06;5066971;28;20073;-74
2022/05/02 05:41:58;;;;;;;8.50;7.70;;;;;;;13.71;99.52;99549.13;5067394;28;20036;-73
2022/05/02 05:44:32;;;;;;;9.10;8.23;;;;;;;13.76;98.71;99546.81;5076923;28;20032;-74
2022/05/02 05:47:36;;;;;;;9.68;8.70;;;;;;;13.81;98.65;99549.81;5070659;28;20526;-73
2022/05/02 05:50:16;;;;;;;9.60;8.10;;;;;;;13.82;99.32;99552.28;5066253;28;20481;-73
2022/05/02 05:53:03;;;;;;;9.43;8.50;;;;;;;13.92;99.41;99554.78;5070583;28;20036;-72
2022/05/02 05:55:54;;;;;;;10.98;8.23;;;;;;;14.04;98.96;99553.47;4715950;28;9999920;-72
2022/05/02 05:58:31;;;;;;;10.27;8.30;;;;;;;14.10;98.66;99555.47;5032339;28;20430;-73
2022/05/02 06:01:08;;;;;;;9.48;8.57;;;;;;;14.16;98.59;99554.81;5067146;28;20035;-71
2022/05/02 06:03:47;;;;;;;9.43;8.47;;;;;;;14.27;98.22;99550.97;5067080;28;20032;-73
2022/05/02 06:06:15;;;;;;;9.35;8.55;;;;;;;14.39;97.66;99544.38;5067541;28;20101;-73
2022/05/02 06:08:43;;;;;;;10.75;9.75;;;;;;;14.51;97.46;99552.81;5067462;28;20041;-74
2022/05/02 06:11:11;;;;;;;9.30;8.23;;;;;;;14.63;96.74;99556.78;5067112;28;20094;-74
2022/05/02 06:13:38;;;;;;;15.25;10.30;;;;;;;14.72;95.76;99551.31;5069750;28;20071;-74
2022/05/02 06:18:54;;;;;;;10.25;8.55;;;;;;;14.87;93.01;99554.09;4367328;28;10000705;-75
2022/05/02 06:21:21;;;;;;;10.27;8.90;;;;;;;14.75;92.65;99555.44;5070134;28;20373;-74
2022/05/02 06:23:50;;;;;;;9.70;8.70;;;;;;;14.65;92.87;99558.28;5069910;28;20032;-74
2022/05/02 06:26:17;;;;;;;10.60;9.25;;;;;;;14.56;93.72;99558.47;5069966;28;20503;-75
2022/05/02 06:28:44;;;;;;;10.27;9.25;;;;;;;14.47;93.39;99552.34;5069698;28;20190;-73
2022/05/02 06:31:18;;;;;;;11.30;10.30;;;;;;;14.46;93.66;99565.78;5069844;28;20032;-75
2022/05/02 06:33:48;;;;;;;9.93;9.13;;;;;;;14.48;93.69;99563.78;4701067;28;10000056;-73
2022/05/02 06:36:26;;;;;;;10.77;9.77;;;;;;;14.40;94.15;99561.97;5066004;28;20503;-75
2022/05/02 06:39:24;;;;;;;10.98;10.07;;;;;;;14.37;94.70;99564.97;5066488;28;20075;-75
2022/05/02 06:42:08;;;;;;;11.50;10.48;;;;;;;14.41;94.84;99560.16;5065661;28;20090;-75
2022/05/02 06:44:36;;;;;;;11.07;10.02;;;;;;;14.54;94.74;99560.47;5061568;28;20029;-74
2022/05/02 06:47:45;;;;;;;11.90;10.77;;;;;;;14.68;94.26;99554.47;4370491;28;10001375;-75
2022/05/02 06:50:17;;;;;;;12.10;11.00;;;;;;;14.80;93.45;99552.28;5067430;28;20033;-74
2022/05/02 06:52:54;;;;;;;11.95;10.77;;;;;;;14.95;92.57;99562.06;5068948;28;20060;-74
2022/05/02 06:55:30;;;;;;;12.98;11.77;;;;;;;15.03;92.00;99559.34;5069393;28;20029;-75
2022/05/02 06:58:49;;;;;;;12.05;11.05;;;;;;;15.21;91.64;99553.81;5069345;28;20138;-74
2022/05/02 07:01:30;;;;;;;12.65;10.93;;;;;;;15.44;90.43;99553.88;4998588;28;20101;-74
2022/05/02 07:04:06;;;;;;;13.57;12.30;;;;;;;15.48;88.82;99558.69;5068907;28;20032;-74
2022/05/02 07:06:31;;;;;;;13.55;12.35;;;;;;;15.55;88.39;99558.84;5065626;28;20046;-74
2022/05/02 07:09:03;;;;;;;14.57;13.07;;;;;;;15.56;88.16;99549.84;5068397;28;20028;-75
2022/05/02 07:12:02;;;;;;;14.50;13.15;;;;;;;15.73;87.83;99556.72;5069192;28;20393;-75
2022/05/02 07:14:55;;;;;;;14.90;13.50;;;;;;;16.00;86.40;99557.22;5065578;28;20037;-75
2022/05/02 07:17:44;;;;;;;13.93;12.63;;;;;;;16.01;84.50;99556.22;5069595;28;20032;-75
2022/05/02 07:20:32;;;;;;;14.57;13.10;;;;;;;15.73;86.69;99555.91;5056724;28;20099;-75
2022/05/02 07:23:35;;;;;;;14.90;13.60;;;;;;;15.69;86.90;99554.59;5068880;28;20025;-73
2022/05/02 07:26:06;;;;;;;14.18;12.77;;;;;;;15.82;86.58;99550.38;5064784;28;20040;-74
2022/05/02 07:28:49;;;;;;;14.43;13.02;;;;;;;15.94;86.41;99554.28;5065890;28;20135;-73
2022/05/02 07:31:24;;;;;;;14.40;12.90;;;;;;;16.04;85.83;99556.69;5066720;28;20037;-75
2022/05/02 07:33:52;;;;;;;14.52;13.00;;;;;;;16.14;84.40;99554.59;5068966;28;20024;-74
2022/05/02 07:36:20;;;;;;;14.20;12.93;;;;;;;16.18;83.93;99549.78;5051304;28;20405;-74
2022/05/02 07:38:47;;;;;;;13.75;12.52;;;;;;;16.30;82.26;99545.69;5069037;28;20328;-74
2022/05/02 07:41:23;;;;;;;13.85;12.45;;;;;;;16.24;81.63;99546.41;5069308;28;20392;-74
2022/05/02 07:44:04;;;;;;;13.43;12.23;;;;;;;16.27;81.14;99543.38;5069716;28;20020;-74
2022/05/02 07:46:45;;;;;;;13.63;12.32;;;;;;;16.36;80.64;99552.97;5051563;28;20481;-74
2022/05/02 07:49:14;;;;;;;14.23;12.88;;;;;;;16.44;80.76;99544.03;5070410;28;20041;-75
2022/05/02 07:51:43;;;;;;;14.18;12.27;;;;;;;16.51;80.75;99540.47;5073793;28;20094;-76
2022/05/02 07:54:15;;;;;;;14.60;13.18;;;;;;;16.57;80.59;99547.75;5072298;28;20029;-74
2022/05/02 07:56:42;;;;;;;15.38;13.60;;;;;;;16.62;80.44;99548.06;5072922;28;20392;-74
2022/05/02 07:59:09;;;;;;;14.57;13.02;;;;;;;16.69;80.66;99550.84;5072512;28;20104;-75
2022/05/02 08:01:34;;;;;;;11.77;10.70;;;;;;;16.78;80.02;99553.25;5072578;28;20534;-75
2022/05/02 08:04:00;;;;;;;13.38;12.07;;;;;;;16.94;79.22;99540.75;5072453;28;20032;-74
2022/05/02 08:06:28;;;;;;;12.77;11.52;;;;;;;17.02;79.01;99544.13;5072608;28;20039;-74
2022/05/02 08:09:17;;;;;;;12.23;11.13;;;;;;;17.18;78.94;99548.47;5072525;28;20037;-74
2022/05/02 08:12:02;;;;;;;11.77;10.68;;;;;;;17.31;79.19;99540.66;5069865;28;20045;-75
2022/05/02 08:14:47;;;;;;;12.55;11.07;;;;;;;17.31;79.27;99537.97;5072417;28;20055;-75
2022/05/02 08:17:21;;;;;;;11.68;10.52;;;;;;;17.32;77.86;99544.94;5069410;28;20037;-74
2022/05/02 08:19:52;;;;;;;11.05;10.07;;;;;;;17.44;77.29;99537.28;5072892;28;20033;-75
2022/05/02 08:28:11;;;;;;;10.70;9.60;;;;;;;17.56;73.40;99549.97;5050651;28;20060;-74
2022/05/02 08:30:53;;;;;;;9.52;8.73;;;;;;;17.61;72.03;99548.63;5071841;28;20029;-75
2022/05/02 08:33:26;;;;;;;9.23;8.43;;;;;;;17.73;72.20;99547.91;5071964;28;20416;-74
2022/05/02 08:36:00;;;;;;;9.32;8.52;;;;;;;17.90;71.87;99553.88;5072018;28;20036;-75
2022/05/02 08:38:51;;;;;;;10.52;8.43;;;;;;;17.93;69.24;99553.47;5072054;28;20036;-75
2022/05/02 08:41:19;;;;;;;9.20;8.30;;;;;;;17.79;69.65;99546.38;5070175;28;20033;-74
2022/05/02 08:43:56;;;;;;;9.38;8.57;;;;;;;17.80;69.81;99542.66;5071553;28;20097;-75
2022/05/02 08:46:39;;;;;;;9.15;8.45;;;;;;;17.82;69.98;99541.47;5070410;28;20074;-74
2022/05/02 08:49:32;;;;;;;11.15;9.15;;;;;;;17.79;69.99;99541.03;5068009;28;20032;-74
2022/05/02 08:52:22;;;;;;;9.43;8.52;;;;;;;17.94;69.47;99547.13;5071260;28;20392;-74
2022/05/02 08:55:30;;;;;;;8.85;8.15;;;;;;;18.04;68.94;99544.94;5070138;28;20060;-75
2022/05/02 08:58:21;;;;;;;9.18;8.30;;;;;;;18.09;67.79;99537.19;5069978;28;20039;-75
2022/05/02 09:01:35;;;;;;;9.95;8.95;;;;;;;18.10;66.35;99538.03;5069451;28;20079;-74
2022/05/02 09:04:15;;;;;;;9.27;8.48;;;;;;;17.97;68.30;99539.53;4988943;28;20054;-74
2022/05/02 09:07:05;;;;;;;10.25;9.27;;;;;;;17.93;68.26;99527.59;5069117;28;20036;-75
2022/05/02 09:09:49;;;;;;;10.20;9.23;;;;;;;17.94;68.23;99533.78;5067854;28;20024;-74
2022/05/02 09:12:21;;;;;;;9.55;8.68;;;;;;;17.96;69.07;99529.09;5069306;28;20040;-74
2022/05/02 09:15:12;;;;;;;9.23;8.32;;;;;;;18.13;68.97;99518.97;5071136;28;20052;-74
2022/05/02 09:18:11;;;;;;;6.95;6.28;;;;;;;18.33;64.81;99523.44;5068379;28;20043;-74
2022/05/02 09:20:55;;;;;;;6.70;5.97;;;;;;;18.52;63.19;99531.81;5068224;28;20524;-74
2022/05/02 09:23:29;;;;;;;7.85;6.43;;;;;;;18.62;62.64;99525.13;5071353;28;20390;-74
2022/05/02 09:26:32;;;;;;;7.43;6.65;;;;;;;18.70;61.89;99526.84;5051570;28;21157;-73
2022/05/02 09:29:35;;;;;;;7.80;7.20;;;;;;;18.75;61.96;99524.38;5073670;28;20032;-72
2022/05/02 09:32:17;;;;;;;7.38;6.85;;;;;;;18.81;61.48;99515.59;5073886;28;20727;-73
2022/05/02 09:34:53;;;;;;;7.85;7.13;;;;;;;18.77;61.21;99514.34;5078189;28;20236;-73
2022/05/02 09:37:38;;;;;;;8.18;7.38;;;;;;;18.83;61.37;99508.22;5076606;28;20036;-71
2022/05/02 09:40:12;;;;;;;8.38;6.50;;;;;;;18.87;61.03;99504.09;5043186;28;20374;-75
2022/05/02 09:42:45;;;;;;;7.30;6.63;;;;;;;18.92;61.00;99506.19;5076680;28;20476;-74
2022/05/02 09:51:18;;;;;;;;;;;;;;;18.95;60.04;99503.97;5042576;28;20460;-73
2022/05/02 09:53:58;;;;;;;12.65;8.63;;;;;;;18.94;61.16;99504.16;5078180;28;20014;-73
2022/05/02 09:56:39;;;;;;;6.28;5.78;;;;;;;18.98;61.37;99505.38;5072317;28;20174;-74
2022/05/02 09:59:28;;;;;;;6.18;5.57;;;;;;;19.13;61.30;99503.44;5073220;28;20046;-74
2022/05/02 10:02:19;;;;;;;7.22;5.50;;;;;;;19.23;60.61;99504.69;5073923;28;20048;-74
2022/05/02 10:04:54;;;;;;;6.13;5.53;;;;;;;19.30;58.25;99501.22;5072450;28;20044;-72
2022/05/02 10:07:24;;;;;;;6.75;6.25;;;;;;;19.35;57.97;99496.94;5069433;28;20490;-73
2022/05/02 10:10:03;;;;;;;5.70;5.10;;;;;;;19.36;57.26;99487.06;5070570;28;20083;-72
2022/05/02 10:12:53;;;;;;;6.32;5.80;;;;;;;19.41;58.02;99489.94;5074204;28;20040;-73
2022/05/02 10:15:27;;;;;;;8.82;5.53;;;;;;;19.41;56.06;99479.25;5038470;28;20069;-73
2022/05/02 10:18:21;;;;;;;5.40;4.57;;;;;;;19.41;56.83;99481.91;5072668;28;20045;-73
2022/05/02 10:21:11;;;;;;;6.70;4.63;;;;;;;19.53;55.16;99480.34;5072929;28;20055;-74
2022/05/02 10:23:42;;;;;;;4.80;4.40;;;;;;;19.60;55.16;99473.97;5073926;28;20033;-73
2022/05/02 10:26:29;;;;;;;3.92;3.58;;;;;;;19.71;53.17;99472.56;5073859;28;20040;-74
2022/05/02 10:29:13;;;;;;;3.92;3.55;;;;;;;19.84;52.77;99469.91;5072718;28;20123;-75
2022/05/02 10:31:39;;;;;;;5.00;4.35;;;;;;;19.92;52.84;99461.66;5057316;28;20369;-74
2022/05/02 10:34:07;;;;;;;6.20;4.35;;;;;;;19.96;51.56;99460.25;5072012;28;20062;-74
2022/05/02 10:36:40;;;;;;;3.40;3.20;;;;;;;20.01;50.78;99465.78;5075148;28;20039;-73
2022/05/02 10:39:32;;;;;;;2.70;2.50;;;;;;;20.06;49.73;99456.31;5074393;28;20538;-74
2022/05/02 10:41:58;;;;;;;3.25;3.05;;;;;;;20.23;49.51;99465.56;5073466;28;20067;-72
2022/05/02 10:44:28;;;;;;;3.47;3.17;;;;;;;20.35;48.84;99461.28;5074576;28;20043;-74
2022/05/02 10:47:03;;;;;;;3.25;2.95;;;;;;;20.41;49.96;99460.44;5075009;28;20074;-74
2022/05/02 10:49:51;;;;;;;3.50;3.20;;;;;;;20.45;49.95;99456.31;5058500;28;20025;-75
2022/05/02 10:52:44;;;;;;;3.13;2.70;;;;;;;20.50;49.98;99455.69;5067618;28;20033;-73
2022/05/02 10:55:31;;;;;;;2.80;2.60;;;;;;;20.50;49.02;99456.50;5069472;28;20032;-73
2022/05/02 10:58:05;;;;;;;2.75;2.53;;;;;;;20.57;48.44;99443.91;5073052;28;20028;-73
2022/05/02 11:00:32;;;;;;;3.20;2.50;;;;;;;20.61;46.86;99439.78;5075529;28;20067;-74
2022/05/02 11:03:29;;;;;;;3.00;2.70;;;;;;;20.55;45.14;99446.00;5072865;28;20392;-74
2022/05/02 11:06:16;;;;;;;2.15;2.05;;;;;;;20.58;45.88;99444.75;5040682;28;20049;-74
2022/05/02 11:08:49;;;;;;;3.97;3.45;;;;;;;20.58;46.29;99440.19;5074468;28;20029;-74
2022/05/02 11:11:29;;;;;;;3.10;2.85;;;;;;;20.58;46.00;99440.19;5072577;28;20041;-74
2022/05/02 11:14:06;;;;;;;4.72;2.65;;;;;;;20.61;45.85;99439.78;5073637;28;20483;-74
2022/05/02 11:16:48;;;;;;;3.95;2.53;;;;;;;20.60;45.52;99443.50;5074999;28;20036;-74
2022/05/02 11:22:23;;;;;;;2.60;2.40;;;;;;;20.55;45.34;99432.59;5067997;28;20029;-73
2022/05/02 11:25:03;;;;;;;2.45;2.17;;;;;;;20.72;45.31;99430.28;5050362;28;20480;-73
2022/05/02 11:27:37;;;;;;;3.90;2.47;;;;;;;20.84;44.34;99424.03;5069085;28;20071;-74
2022/05/02 11:30:03;;;;;;;2.17;1.98;;;;;;;20.92;44.89;99435.56;5067541;28;20032;-74
2022/05/02 11:32:37;;;;;;;2.42;2.30;;;;;;;20.99;44.05;99428.31;5068205;28;20036;-74
2022/05/02 11:35:08;;;;;;;3.75;2.55;;;;;;;21.06;44.08;99431.78;5066650;28;20036;-74
2022/05/02 11:37:37;;;;;;;2.25;2.15;;;;;;;21.13;43.40;99419.19;5066884;28;20499;-74
2022/05/02 11:40:10;;;;;;;3.60;2.72;;;;;;;21.23;43.29;99416.88;5065657;28;20048;-74
2022/05/02 11:42:46;;;;;;;2.95;2.75;;;;;;;21.31;42.38;99413.94;5065525;28;20056;-74
2022/05/02 11:45:17;;;;;;;2.88;2.58;;;;;;;21.50;41.88;99421.03;5067865;28;20082;-74
2022/05/02 11:47:54;;;;;;;;;;;;;;;21.68;41.96;99420.28;5069735;28;20033;-74
2022/05/02 11:50:22;;;;;;;3.65;3.33;;;;;;;21.86;41.42;99414.16;5066240;28;19920;-73
2022/05/02 11:52:56;;;;;;;3.40;2.60;;;;;;;22.05;40.64;99418.59;5069354;28;20044;-74
2022/05/02 11:55:30;;;;;;;2.97;2.78;;;;;;;22.22;40.27;99400.88;5068367;28;20472;-72
2022/05/02 11:58:24;;;;;;;3.22;2.50;;;;;;;22.54;39.52;99398.06;5069379;28;20062;-74
2022/05/02 12:01:01;;;;;;;4.72;2.28;;;;;;;22.92;38.97;99401.34;5066457;28;20384;-74
2022/05/02 12:03:47;;;;;;;5.93;2.50;;;;;;;23.23;38.08;99398.47;5068340;28;20040;-74
2022/05/02 12:06:15;;;;;;;4.15;2.25;;;;;;;23.58;37.87;99395.91;5049432;28;20123;-73
2022/05/02 12:08:46;;;;;;;2.67;2.30;;;;;;;24.09;35.63;99400.66;5066307;28;20123;-72
2022/05/02 12:11:13;;;;;;;2.50;2.40;;;;;;;26.04;32.78;99388.88;5066967;28;20032;-73
2022/05/02 12:13:45;;;;;;;2.25;2.05;;;;;;;28.37;29.03;99386.09;5068791;28;20396;-73
2022/05/02 12:16:15;;;;;;;2.60;2.42;;;;;;;30.26;25.85;99380.81;5067635;28;20746;-73
2022/05/02 12:18:41;;;;;;;2.58;2.38;;;;;;;31.63;24.28;99376.41;5066503;28;20037;-73
2022/05/02 12:21:10;;;;;;;2.78;2.58;;;;;;;32.99;22.20;99367.13;5066815;28;20021;-73